sensor_id;sensor_type;location;lat;lon;timestamp;pressure;altitude;pressure_sealevel;temperature;humidity
20710;BME280;10516;51.518;9.864;2023-02-02T00:01:21;98815.28;;;2.70;90.34
20710;BME280;10516;51.518;9.864;2023-02-02T00:03:47;98831.84;;;2.57;89.58
20710;BME280;10516;51.518;9.864;2023-02-02T00:06:18;98840.16;;;2.61;90.01
20710;BME280;10516;51.518;9.864;2023-02-02T00:08:44;98835.50;;;2.56;90.42
20710;BME280;10516;51.518;9.864;2023-02-02T00:11:10;98827.84;;;2.68;90.54
20710;BME280;10516;51.518;9.864;2023-02-02T00:13:36;98832.25;;;2.61;90.48
20710;BME280;10516;51.518;9.864;2023-02-02T00:18:47;98839.19;;;2.68;90.11
20710;BME280;10516;51.518;9.864;2023-02-02T00:21:12;98836.91;;;2.59;89.25
20710;BME280;10516;51.518;9.864;2023-02-02T00:23:38;98845.91;;;2.71;90.37
20710;BME280;10516;51.518;9.864;2023-02-02T00:26:03;98819.53;;;2.64;90.30
20710;BME280;10516;51.518;9.864;2023-02-02T00:28:29;98818.69;;;2.64;89.42
20710;BME280;10516;51.518;9.864;2023-02-02T00:30:54;98838.16;;;2.69;89.38
20710;BME280;10516;51.518;9.864;2023-02-02T00:33:19;98844.63;;;2.67;89.85
20710;BME280;10516;51.518;9.864;2023-02-02T00:35:45;98838.97;;;2.63;89.86
20710;BME280;10516;51.518;9.864;2023-02-02T00:38:10;98811.00;;;2.75;89.82
20710;BME280;10516;51.518;9.864;2023-02-02T00:40:35;98838.00;;;2.71;89.49
20710;BME280;10516;51.518;9.864;2023-02-02T00:43:01;98837.75;;;2.59;89.59
20710;BME280;10516;51.518;9.864;2023-02-02T00:45:26;98839.59;;;2.72;89.57
20710;BME280;10516;51.518;9.864;2023-02-02T00:47:51;98842.66;;;2.82;90.00
20710;BME280;10516;51.518;9.864;2023-02-02T00:50:19;98842.59;;;2.62;88.59
20710;BME280;10516;51.518;9.864;2023-02-02T00:52:45;98835.34;;;2.71;89.33
20710;BME280;10516;51.518;9.864;2023-02-02T00:55:12;98829.88;;;2.72;89.67
20710;BME280;10516;51.518;9.864;2023-02-02T00:57:38;98853.94;;;2.63;89.60
20710;BME280;10516;51.518;9.864;2023-02-02T01:00:05;98841.00;;;2.61;89.55
20710;BME280;10516;51.518;9.864;2023-02-02T01:02:32;98862.09;;;2.68;89.91
20710;BME280;10516;51.518;9.864;2023-02-02T01:04:57;98851.34;;;2.69;89.53
20710;BME280;10516;51.518;9.864;2023-02-02T01:07:23;98847.25;;;2.60;88.48
20710;BME280;10516;51.518;9.864;2023-02-02T01:09:48;98845.88;;;2.64;89.28
20710;BME280;10516;51.518;9.864;2023-02-02T01:12:14;98853.34;;;2.67;88.47
20710;BME280;10516;51.518;9.864;2023-02-02T01:14:39;98856.44;;;2.77;89.13
20710;BME280;10516;51.518;9.864;2023-02-02T01:17:04;98851.78;;;2.79;88.93
20710;BME280;10516;51.518;9.864;2023-02-02T01:19:30;98862.28;;;2.66;89.76
20710;BME280;10516;51.518;9.864;2023-02-02T01:21:55;98867.97;;;2.70;89.07
20710;BME280;10516;51.518;9.864;2023-02-02T01:24:21;98860.44;;;2.67;89.60
20710;BME280;10516;51.518;9.864;2023-02-02T01:26:46;98856.59;;;2.63;89.19
20710;BME280;10516;51.518;9.864;2023-02-02T01:29:11;98873.44;;;2.68;89.11
20710;BME280;10516;51.518;9.864;2023-02-02T01:31:37;98871.59;;;2.69;89.20
20710;BME280;10516;51.518;9.864;2023-02-02T01:34:02;98875.66;;;2.71;89.13
20710;BME280;10516;51.518;9.864;2023-02-02T01:36:28;98853.94;;;2.56;89.53
20710;BME280;10516;51.518;9.864;2023-02-02T01:38:53;98884.94;;;2.54;88.19
20710;BME280;10516;51.518;9.864;2023-02-02T01:41:21;98889.25;;;2.68;88.96
20710;BME280;10516;51.518;9.864;2023-02-02T01:48:59;98873.81;;;2.65;89.54
20710;BME280;10516;51.518;9.864;2023-02-02T01:54:01;98889.84;;;2.64;88.86
20710;BME280;10516;51.518;9.864;2023-02-02T01:56:32;98901.00;;;2.66;89.05
20710;BME280;10516;51.518;9.864;2023-02-02T01:58:58;98897.53;;;2.65;89.46
20710;BME280;10516;51.518;9.864;2023-02-02T02:01:25;98888.97;;;2.50;86.24
20710;BME280;10516;51.518;9.864;2023-02-02T02:03:51;98902.00;;;2.71;88.25
20710;BME280;10516;51.518;9.864;2023-02-02T02:06:18;98904.47;;;2.73;88.54
20710;BME280;10516;51.518;9.864;2023-02-02T02:09:04;98905.25;;;2.67;89.06
20710;BME280;10516;51.518;9.864;2023-02-02T02:11:31;98890.84;;;2.63;89.27
20710;BME280;10516;51.518;9.864;2023-02-02T02:13:59;98910.16;;;2.76;88.20
20710;BME280;10516;51.518;9.864;2023-02-02T02:17:13;98884.78;;;2.69;87.87
20710;BME280;10516;51.518;9.864;2023-02-02T02:37:00;98906.88;;;2.68;87.94
20710;BME280;10516;51.518;9.864;2023-02-02T02:39:38;98902.00;;;2.71;88.08
20710;BME280;10516;51.518;9.864;2023-02-02T02:42:12;98899.97;;;2.67;86.94
20710;BME280;10516;51.518;9.864;2023-02-02T02:44:39;98895.94;;;2.64;87.07
20710;BME280;10516;51.518;9.864;2023-02-02T02:47:05;98908.50;;;2.69;88.61
20710;BME280;10516;51.518;9.864;2023-02-02T02:49:30;98908.69;;;2.67;88.16
20710;BME280;10516;51.518;9.864;2023-02-02T02:51:56;98908.88;;;2.59;88.84
20710;BME280;10516;51.518;9.864;2023-02-02T02:54:32;98900.34;;;2.57;88.10
20710;BME280;10516;51.518;9.864;2023-02-02T03:00:07;98926.19;;;2.81;88.11
20710;BME280;10516;51.518;9.864;2023-02-02T03:02:50;98907.44;;;2.57;88.04
20710;BME280;10516;51.518;9.864;2023-02-02T03:08:26;98920.59;;;2.57;88.14
20710;BME280;10516;51.518;9.864;2023-02-02T03:10:54;98921.84;;;2.61;88.37
20710;BME280;10516;51.518;9.864;2023-02-02T03:13:21;98925.09;;;2.63;87.67
20710;BME280;10516;51.518;9.864;2023-02-02T03:15:47;98912.88;;;2.49;87.44
20710;BME280;10516;51.518;9.864;2023-02-02T03:18:13;98921.25;;;2.65;88.40
20710;BME280;10516;51.518;9.864;2023-02-02T03:20:39;98913.94;;;2.61;88.97
20710;BME280;10516;51.518;9.864;2023-02-02T03:23:06;98929.16;;;2.65;89.09
20710;BME280;10516;51.518;9.864;2023-02-02T03:25:31;98919.25;;;2.74;88.55
20710;BME280;10516;51.518;9.864;2023-02-02T03:27:57;98928.13;;;2.60;88.20
20710;BME280;10516;51.518;9.864;2023-02-02T03:30:22;98925.91;;;2.63;87.45
20710;BME280;10516;51.518;9.864;2023-02-02T03:32:48;98921.41;;;2.51;87.81
20710;BME280;10516;51.518;9.864;2023-02-02T03:35:14;98939.47;;;2.60;88.73
20710;BME280;10516;51.518;9.864;2023-02-02T03:37:40;98933.00;;;2.63;88.72
20710;BME280;10516;51.518;9.864;2023-02-02T03:40:05;98937.28;;;2.70;88.72
20710;BME280;10516;51.518;9.864;2023-02-02T03:42:31;98947.03;;;2.76;88.61
20710;BME280;10516;51.518;9.864;2023-02-02T03:44:56;98944.22;;;2.84;88.73
20710;BME280;10516;51.518;9.864;2023-02-02T03:47:22;98935.50;;;2.77;88.43
20710;BME280;10516;51.518;9.864;2023-02-02T03:49:47;98927.19;;;2.80;88.35
20710;BME280;10516;51.518;9.864;2023-02-02T03:52:12;98915.56;;;2.62;87.38
20710;BME280;10516;51.518;9.864;2023-02-02T03:54:38;98928.38;;;2.71;88.76
20710;BME280;10516;51.518;9.864;2023-02-02T03:57:03;98926.53;;;2.65;88.38
20710;BME280;10516;51.518;9.864;2023-02-02T03:59:28;98927.56;;;2.64;88.92
20710;BME280;10516;51.518;9.864;2023-02-02T04:01:54;98921.84;;;2.61;88.69
20710;BME280;10516;51.518;9.864;2023-02-02T04:04:19;98938.31;;;2.76;88.52
20710;BME280;10516;51.518;9.864;2023-02-02T04:06:44;98937.91;;;2.72;88.75
20710;BME280;10516;51.518;9.864;2023-02-02T04:09:10;98921.84;;;2.61;89.14
20710;BME280;10516;51.518;9.864;2023-02-02T04:11:35;98943.16;;;2.66;89.02
20710;BME280;10516;51.518;9.864;2023-02-02T04:14:00;98934.63;;;2.64;89.25
20710;BME280;10516;51.518;9.864;2023-02-02T04:16:26;98943.19;;;2.72;89.56
20710;BME280;10516;51.518;9.864;2023-02-02T04:18:51;98931.84;;;2.78;88.83
20710;BME280;10516;51.518;9.864;2023-02-02T04:21:17;98946.47;;;2.81;89.08
20710;BME280;10516;51.518;9.864;2023-02-02T04:23:42;98950.09;;;2.80;89.17
20710;BME280;10516;51.518;9.864;2023-02-02T04:26:07;98933.41;;;2.60;89.25
20710;BME280;10516;51.518;9.864;2023-02-02T04:28:33;98944.22;;;2.78;89.27
20710;BME280;10516;51.518;9.864;2023-02-02T04:30:58;98942.97;;;2.74;88.95
20710;BME280;10516;51.518;9.864;2023-02-02T04:33:25;98952.72;;;2.80;88.52
20710;BME280;10516;51.518;9.864;2023-02-02T04:35:51;98949.50;;;2.84;88.65
20710;BME280;10516;51.518;9.864;2023-02-02T04:38:16;98940.97;;;2.82;88.64
20710;BME280;10516;51.518;9.864;2023-02-02T04:40:43;98944.81;;;2.80;89.09
20710;BME280;10516;51.518;9.864;2023-02-02T04:43:09;98959.91;;;2.92;88.80
20710;BME280;10516;51.518;9.864;2023-02-02T04:45:35;98953.09;;;2.70;88.38
20710;BME280;10516;51.518;9.864;2023-02-02T04:48:01;98953.50;;;2.74;89.38
20710;BME280;10516;51.518;9.864;2023-02-02T04:50:27;98949.28;;;2.73;89.26
20710;BME280;10516;51.518;9.864;2023-02-02T04:52:52;98957.19;;;2.73;89.62
20710;BME280;10516;51.518;9.864;2023-02-02T04:55:18;98954.16;;;2.82;89.12
20710;BME280;10516;51.518;9.864;2023-02-02T04:57:43;98960.03;;;2.84;89.46
20710;BME280;10516;51.518;9.864;2023-02-02T05:00:09;98955.00;;;2.89;88.82
20710;BME280;10516;51.518;9.864;2023-02-02T05:02:38;98969.97;;;2.82;88.94
20710;BME280;10516;51.518;9.864;2023-02-02T05:05:07;98976.88;;;2.83;88.92
20710;BME280;10516;51.518;9.864;2023-02-02T05:07:34;98969.59;;;2.85;88.87
20710;BME280;10516;51.518;9.864;2023-02-02T05:09:59;98981.78;;;2.93;89.13
20710;BME280;10516;51.518;9.864;2023-02-02T05:12:24;98978.34;;;2.92;88.99
20710;BME280;10516;51.518;9.864;2023-02-02T05:14:50;98982.38;;;2.88;88.72
20710;BME280;10516;51.518;9.864;2023-02-02T05:17:15;98973.84;;;2.86;89.19
20710;BME280;10516;51.518;9.864;2023-02-02T05:19:41;98966.50;;;2.75;88.79
20710;BME280;10516;51.518;9.864;2023-02-02T05:22:06;98972.44;;;2.84;89.60
20710;BME280;10516;51.518;9.864;2023-02-02T05:24:32;98982.84;;;2.98;89.40
20710;BME280;10516;51.518;9.864;2023-02-02T05:26:57;98961.69;;;2.85;89.21
20710;BME280;10516;51.518;9.864;2023-02-02T05:29:28;98961.47;;;2.87;88.85
20710;BME280;10516;51.518;9.864;2023-02-02T05:31:55;98967.59;;;2.94;89.17
20710;BME280;10516;51.518;9.864;2023-02-02T05:34:20;98986.91;;;3.01;89.42
20710;BME280;10516;51.518;9.864;2023-02-02T05:36:46;98971.81;;;2.88;88.42
20710;BME280;10516;51.518;9.864;2023-02-02T05:39:12;98973.50;;;2.96;89.27
20710;BME280;10516;51.518;9.864;2023-02-02T05:41:37;98970.00;;;2.89;89.01
20710;BME280;10516;51.518;9.864;2023-02-02T05:44:03;98982.03;;;3.04;86.40
20710;BME280;10516;51.518;9.864;2023-02-02T05:46:28;98978.13;;;2.87;86.68
20710;BME280;10516;51.518;9.864;2023-02-02T05:48:54;98981.81;;;2.99;87.77
20710;BME280;10516;51.518;9.864;2023-02-02T05:51:24;98980.22;;;3.05;88.12
20710;BME280;10516;51.518;9.864;2023-02-02T05:53:51;98985.69;;;3.03;87.80
20710;BME280;10516;51.518;9.864;2023-02-02T05:56:16;98990.50;;;2.93;88.36
20710;BME280;10516;51.518;9.864;2023-02-02T05:58:42;98996.00;;;2.98;88.09
20710;BME280;10516;51.518;9.864;2023-02-02T06:01:08;98992.53;;;2.91;88.38
20710;BME280;10516;51.518;9.864;2023-02-02T06:03:34;99009.22;;;3.05;88.04
20710;BME280;10516;51.518;9.864;2023-02-02T06:05:59;99004.34;;;3.02;87.50
20710;BME280;10516;51.518;9.864;2023-02-02T06:08:25;99019.25;;;3.23;85.96
20710;BME280;10516;51.518;9.864;2023-02-02T06:10:50;99008.06;;;3.21;85.14
20710;BME280;10516;51.518;9.864;2023-02-02T06:13:16;99012.50;;;3.14;86.40
20710;BME280;10516;51.518;9.864;2023-02-02T06:15:41;99008.16;;;2.99;86.66
20710;BME280;10516;51.518;9.864;2023-02-02T06:18:07;99012.06;;;3.03;87.24
20710;BME280;10516;51.518;9.864;2023-02-02T06:20:33;99017.34;;;3.03;87.84
20710;BME280;10516;51.518;9.864;2023-02-02T06:22:58;99027.66;;;2.98;87.62
20710;BME280;10516;51.518;9.864;2023-02-02T06:25:24;99024.94;;;2.85;88.34
20710;BME280;10516;51.518;9.864;2023-02-02T06:27:54;99026.47;;;2.73;88.06
20710;BME280;10516;51.518;9.864;2023-02-02T06:30:19;99031.44;;;2.89;88.84
20710;BME280;10516;51.518;9.864;2023-02-02T06:32:45;99040.53;;;2.80;88.85
20710;BME280;10516;51.518;9.864;2023-02-02T06:35:10;99034.00;;;2.76;88.94
20710;BME280;10516;51.518;9.864;2023-02-02T06:37:35;99034.19;;;2.68;88.35
20710;BME280;10516;51.518;9.864;2023-02-02T06:40:04;99028.66;;;2.63;87.73
20710;BME280;10516;51.518;9.864;2023-02-02T06:42:29;99048.22;;;2.82;88.89
20710;BME280;10516;51.518;9.864;2023-02-02T06:44:54;99056.66;;;2.64;88.67
20710;BME280;10516;51.518;9.864;2023-02-02T06:47:20;99055.13;;;2.83;89.36
20710;BME280;10516;51.518;9.864;2023-02-02T06:49:45;99041.00;;;2.90;88.82
20710;BME280;10516;51.518;9.864;2023-02-02T06:52:10;99039.97;;;2.91;89.27
20710;BME280;10516;51.518;9.864;2023-02-02T06:54:36;99050.31;;;2.93;88.93
20710;BME280;10516;51.518;9.864;2023-02-02T06:57:01;99048.66;;;2.85;89.65
20710;BME280;10516;51.518;9.864;2023-02-02T06:59:26;99043.47;;;2.64;89.03
20710;BME280;10516;51.518;9.864;2023-02-02T07:01:52;99065.34;;;2.92;88.76
20710;BME280;10516;51.518;9.864;2023-02-02T07:04:18;99071.19;;;2.88;88.95
20710;BME280;10516;51.518;9.864;2023-02-02T07:06:44;99067.97;;;2.92;88.71
20710;BME280;10516;51.518;9.864;2023-02-02T07:09:09;99080.63;;;3.03;88.50
20710;BME280;10516;51.518;9.864;2023-02-02T07:11:35;99085.09;;;3.10;88.43
20710;BME280;10516;51.518;9.864;2023-02-02T07:14:01;99089.22;;;3.19;88.52
20710;BME280;10516;51.518;9.864;2023-02-02T07:16:26;99093.44;;;3.13;88.84
20710;BME280;10516;51.518;9.864;2023-02-02T07:18:52;99100.13;;;3.16;88.32
20710;BME280;10516;51.518;9.864;2023-02-02T07:21:20;99095.69;;;2.54;90.29
20710;BME280;10516;51.518;9.864;2023-02-02T07:23:45;99117.03;;;2.93;90.02
20710;BME280;10516;51.518;9.864;2023-02-02T07:26:12;99111.47;;;2.82;89.98
20710;BME280;10516;51.518;9.864;2023-02-02T07:28:38;99095.19;;;2.44;91.15
20710;BME280;10516;51.518;9.864;2023-02-02T07:31:22;99118.53;;;2.75;91.41
20710;BME280;10516;51.518;9.864;2023-02-02T07:33:48;99120.06;;;2.90;90.55
20710;BME280;10516;51.518;9.864;2023-02-02T07:36:16;99116.81;;;2.61;90.12
20710;BME280;10516;51.518;9.864;2023-02-02T07:38:42;99110.13;;;2.86;89.97
20710;BME280;10516;51.518;9.864;2023-02-02T07:41:08;99114.88;;;2.76;90.34
20710;BME280;10516;51.518;9.864;2023-02-02T07:43:33;99112.44;;;3.02;89.06
20710;BME280;10516;51.518;9.864;2023-02-02T07:46:00;99119.44;;;2.88;89.62
20710;BME280;10516;51.518;9.864;2023-02-02T07:48:29;99125.16;;;2.92;89.50
20710;BME280;10516;51.518;9.864;2023-02-02T07:50:58;99137.66;;;2.83;89.71
20710;BME280;10516;51.518;9.864;2023-02-02T07:53:25;99144.63;;;2.97;89.54
20710;BME280;10516;51.518;9.864;2023-02-02T07:55:50;99152.00;;;3.09;89.09
20710;BME280;10516;51.518;9.864;2023-02-02T07:58:15;99148.50;;;3.01;89.46
20710;BME280;10516;51.518;9.864;2023-02-02T08:00:41;99137.03;;;3.09;88.80
20710;BME280;10516;51.518;9.864;2023-02-02T08:03:10;99131.31;;;3.06;88.81
20710;BME280;10516;51.518;9.864;2023-02-02T08:05:35;99133.81;;;3.14;88.60
20710;BME280;10516;51.518;9.864;2023-02-02T08:08:03;99139.44;;;3.11;88.60
20710;BME280;10516;51.518;9.864;2023-02-02T08:10:28;99147.41;;;3.17;88.60
20710;BME280;10516;51.518;9.864;2023-02-02T08:12:54;99139.91;;;3.14;88.19
20710;BME280;10516;51.518;9.864;2023-02-02T08:15:19;99135.38;;;3.08;88.64
20710;BME280;10516;51.518;9.864;2023-02-02T08:17:45;99163.06;;;3.19;88.33
20710;BME280;10516;51.518;9.864;2023-02-02T08:20:14;99171.97;;;3.18;88.56
20710;BME280;10516;51.518;9.864;2023-02-02T08:22:39;99167.47;;;3.12;88.73
20710;BME280;10516;51.518;9.864;2023-02-02T08:25:05;99167.22;;;3.07;88.99
20710;BME280;10516;51.518;9.864;2023-02-02T08:27:30;99157.97;;;2.89;88.81
20710;BME280;10516;51.518;9.864;2023-02-02T08:29:56;99151.25;;;2.87;89.46
20710;BME280;10516;51.518;9.864;2023-02-02T08:32:21;99177.75;;;3.07;89.37
20710;BME280;10516;51.518;9.864;2023-02-02T08:34:47;99172.66;;;2.98;89.09
20710;BME280;10516;51.518;9.864;2023-02-02T08:37:13;99183.63;;;3.02;89.73
20710;BME280;10516;51.518;9.864;2023-02-02T08:39:38;99185.81;;;2.98;89.56
20710;BME280;10516;51.518;9.864;2023-02-02T08:42:03;99179.78;;;3.04;88.93
20710;BME280;10516;51.518;9.864;2023-02-02T08:44:29;99187.31;;;3.08;89.61
20710;BME280;10516;51.518;9.864;2023-02-02T08:46:54;99188.84;;;2.95;89.13
20710;BME280;10516;51.518;9.864;2023-02-02T08:49:20;99192.72;;;2.99;89.71
20710;BME280;10516;51.518;9.864;2023-02-02T08:51:45;99181.31;;;2.92;90.05
20710;BME280;10516;51.518;9.864;2023-02-02T08:54:10;99187.69;;;3.04;89.88
20710;BME280;10516;51.518;9.864;2023-02-02T08:56:36;99197.25;;;3.06;89.15
20710;BME280;10516;51.518;9.864;2023-02-02T08:59:01;99178.69;;;2.92;88.97
20710;BME280;10516;51.518;9.864;2023-02-02T09:01:30;99194.97;;;3.02;88.89
20710;BME280;10516;51.518;9.864;2023-02-02T09:04:02;99199.44;;;3.02;89.09
20710;BME280;10516;51.518;9.864;2023-02-02T09:08:58;99204.28;;;2.98;89.74
20710;BME280;10516;51.518;9.864;2023-02-02T09:11:24;99206.53;;;3.01;89.20
20710;BME280;10516;51.518;9.864;2023-02-02T09:13:53;99211.16;;;2.99;89.94
20710;BME280;10516;51.518;9.864;2023-02-02T09:16:19;99209.16;;;3.01;89.55
20710;BME280;10516;51.518;9.864;2023-02-02T09:18:45;99207.75;;;2.99;89.56
20710;BME280;10516;51.518;9.864;2023-02-02T09:21:13;99204.81;;;2.87;89.66
20710;BME280;10516;51.518;9.864;2023-02-02T09:23:40;99207.06;;;2.90;89.36
20710;BME280;10516;51.518;9.864;2023-02-02T09:26:10;99215.03;;;2.97;89.89
20710;BME280;10516;51.518;9.864;2023-02-02T09:28:37;99228.09;;;2.84;90.00
20710;BME280;10516;51.518;9.864;2023-02-02T09:31:02;99227.38;;;2.96;89.68
20710;BME280;10516;51.518;9.864;2023-02-02T09:33:28;99229.81;;;2.98;89.93
20710;BME280;10516;51.518;9.864;2023-02-02T09:35:53;99212.09;;;2.85;90.07
20710;BME280;10516;51.518;9.864;2023-02-02T09:38:18;99240.56;;;2.96;90.33
20710;BME280;10516;51.518;9.864;2023-02-02T09:40:44;99221.59;;;2.86;90.27
20710;BME280;10516;51.518;9.864;2023-02-02T09:46:06;99222.63;;;2.85;90.39
20710;BME280;10516;51.518;9.864;2023-02-02T09:48:59;99230.13;;;2.88;89.82
20710;BME280;10516;51.518;9.864;2023-02-02T09:51:32;99232.53;;;2.83;90.34
20710;BME280;10516;51.518;9.864;2023-02-02T09:54:16;99225.72;;;2.68;90.68
20710;BME280;10516;51.518;9.864;2023-02-02T09:56:44;99225.28;;;2.64;90.36
20710;BME280;10516;51.518;9.864;2023-02-02T09:59:19;99235.56;;;2.80;90.54
20710;BME280;10516;51.518;9.864;2023-02-02T10:01:46;99237.81;;;2.83;90.14
20710;BME280;10516;51.518;9.864;2023-02-02T10:04:29;99230.03;;;2.75;90.46
20710;BME280;10516;51.518;9.864;2023-02-02T10:07:03;99251.00;;;2.83;90.51
20710;BME280;10516;51.518;9.864;2023-02-02T10:09:39;99233.06;;;2.72;90.51
20710;BME280;10516;51.518;9.864;2023-02-02T10:20:40;99254.50;;;2.69;90.88
20710;BME280;10516;51.518;9.864;2023-02-02T10:23:16;99243.47;;;2.59;91.51
20710;BME280;10516;51.518;9.864;2023-02-02T10:26:01;99251.25;;;2.67;91.23
20710;BME280;10516;51.518;9.864;2023-02-02T10:31:24;99274.81;;;2.75;90.69
20710;BME280;10516;51.518;9.864;2023-02-02T10:34:05;99280.28;;;2.74;90.56
20710;BME280;10516;51.518;9.864;2023-02-02T10:42:32;99278.84;;;2.71;90.75
20710;BME280;10516;51.518;9.864;2023-02-02T10:45:16;99279.47;;;2.73;90.42
20710;BME280;10516;51.518;9.864;2023-02-02T10:47:42;99284.00;;;2.79;90.56
20710;BME280;10516;51.518;9.864;2023-02-02T10:52:39;99283.41;;;2.63;91.25
20710;BME280;10516;51.518;9.864;2023-02-02T10:57:56;99287.16;;;2.54;91.73
20710;BME280;10516;51.518;9.864;2023-02-02T11:00:53;99281.91;;;2.54;91.71
20710;BME280;10516;51.518;9.864;2023-02-02T11:03:22;99283.00;;;2.59;91.33
20710;BME280;10516;51.518;9.864;2023-02-02T11:05:49;99285.72;;;2.51;91.35
20710;BME280;10516;51.518;9.864;2023-02-02T11:08:39;99291.16;;;2.64;91.35
20710;BME280;10516;51.518;9.864;2023-02-02T11:11:18;99295.69;;;2.56;91.20
20710;BME280;10516;51.518;9.864;2023-02-02T11:13:58;99305.31;;;2.63;90.41
20710;BME280;10516;51.518;9.864;2023-02-02T11:16:28;99307.97;;;2.63;91.07
20710;BME280;10516;51.518;9.864;2023-02-02T11:18:54;99299.75;;;2.73;90.61
20710;BME280;10516;51.518;9.864;2023-02-02T11:21:25;99308.59;;;2.65;91.02
20710;BME280;10516;51.518;9.864;2023-02-02T11:26:51;99307.88;;;2.57;91.40
20710;BME280;10516;51.518;9.864;2023-02-02T11:35:15;99327.22;;;2.64;90.72
20710;BME280;10516;51.518;9.864;2023-02-02T11:40:43;99336.47;;;2.74;89.88
20710;BME280;10516;51.518;9.864;2023-02-02T11:43:20;99343.75;;;2.72;90.93
20710;BME280;10516;51.518;9.864;2023-02-02T11:45:57;99321.75;;;2.65;91.05
20710;BME280;10516;51.518;9.864;2023-02-02T11:48:27;99316.91;;;2.69;90.90
20710;BME280;10516;51.518;9.864;2023-02-02T11:50:55;99315.88;;;2.63;90.71
20710;BME280;10516;51.518;9.864;2023-02-02T11:53:24;99316.91;;;2.69;90.84
20710;BME280;10516;51.518;9.864;2023-02-02T11:55:52;99324.75;;;2.62;91.30
20710;BME280;10516;51.518;9.864;2023-02-02T12:00:48;99322.03;;;2.70;90.96
20710;BME280;10516;51.518;9.864;2023-02-02T12:03:40;99317.25;;;2.59;91.28
20710;BME280;10516;51.518;9.864;2023-02-02T12:08:48;99317.91;;;2.47;92.16
20710;BME280;10516;51.518;9.864;2023-02-02T12:11:35;99330.06;;;2.48;91.81
20710;BME280;10516;51.518;9.864;2023-02-02T12:17:07;99322.72;;;2.43;91.77
20710;BME280;10516;51.518;9.864;2023-02-02T12:24:47;99292.84;;;2.36;92.16
20710;BME280;10516;51.518;9.864;2023-02-02T12:27:56;99305.38;;;2.34;92.03
20710;BME280;10516;51.518;9.864;2023-02-02T12:30:20;99295.13;;;2.39;91.81
20710;BME280;10516;51.518;9.864;2023-02-02T12:38:34;99292.47;;;2.39;91.69
20710;BME280;10516;51.518;9.864;2023-02-02T12:51:44;99308.38;;;2.46;91.46
20710;BME280;10516;51.518;9.864;2023-02-02T13:02:20;99299.91;;;2.50;91.78
20710;BME280;10516;51.518;9.864;2023-02-02T13:07:37;99306.44;;;2.54;91.14
20710;BME280;10516;51.518;9.864;2023-02-02T13:10:19;99307.25;;;2.55;91.08
20710;BME280;10516;51.518;9.864;2023-02-02T13:12:52;99306.44;;;2.54;91.17
20710;BME280;10516;51.518;9.864;2023-02-02T13:15:21;99300.66;;;2.44;91.02
20710;BME280;10516;51.518;9.864;2023-02-02T13:17:52;99322.13;;;2.62;91.35
20710;BME280;10516;51.518;9.864;2023-02-02T13:23:08;99321.94;;;2.64;90.82
20710;BME280;10516;51.518;9.864;2023-02-02T13:25:41;99328.47;;;2.68;90.80
20710;BME280;10516;51.518;9.864;2023-02-02T13:28:16;99323.56;;;2.65;91.11
20710;BME280;10516;51.518;9.864;2023-02-02T13:30:46;99315.09;;;2.69;90.58
20710;BME280;10516;51.518;9.864;2023-02-02T13:33:26;99314.75;;;2.72;90.82
20710;BME280;10516;51.518;9.864;2023-02-02T13:36:07;99326.75;;;2.60;91.30
20710;BME280;10516;51.518;9.864;2023-02-02T13:38:34;99328.69;;;2.66;90.48
20710;BME280;10516;51.518;9.864;2023-02-02T13:41:06;99327.09;;;2.72;90.92
20710;BME280;10516;51.518;9.864;2023-02-02T13:43:47;99334.72;;;2.81;90.69
20710;BME280;10516;51.518;9.864;2023-02-02T13:49:09;99342.63;;;2.81;90.30
20710;BME280;10516;51.518;9.864;2023-02-02T14:00:15;99326.81;;;2.81;90.71
20710;BME280;10516;51.518;9.864;2023-02-02T14:02:52;99323.72;;;2.78;91.04
20710;BME280;10516;51.518;9.864;2023-02-02T14:07:46;99331.88;;;2.83;90.53
20710;BME280;10516;51.518;9.864;2023-02-02T14:10:31;99342.84;;;2.86;90.94
20710;BME280;10516;51.518;9.864;2023-02-02T14:13:24;99333.53;;;2.84;90.50
20710;BME280;10516;51.518;9.864;2023-02-02T14:16:42;99341.31;;;2.92;90.37
20710;BME280;10516;51.518;9.864;2023-02-02T14:34:42;99368.00;;;3.03;90.08
20710;BME280;10516;51.518;9.864;2023-02-02T14:45:24;99372.94;;;2.92;90.51
20710;BME280;10516;51.518;9.864;2023-02-02T14:47:57;99381.06;;;2.90;90.40
20710;BME280;10516;51.518;9.864;2023-02-02T14:58:25;99405.91;;;3.02;90.00
20710;BME280;10516;51.518;9.864;2023-02-02T15:00:55;99403.63;;;2.99;90.36
20710;BME280;10516;51.518;9.864;2023-02-02T15:09:35;99404.94;;;2.89;90.54
20710;BME280;10516;51.518;9.864;2023-02-02T15:14:36;99415.75;;;2.94;90.45
20710;BME280;10516;51.518;9.864;2023-02-02T15:19:49;99429.81;;;2.65;90.16
20710;BME280;10516;51.518;9.864;2023-02-02T15:22:46;99422.31;;;2.83;90.44
20710;BME280;10516;51.518;9.864;2023-02-02T15:25:18;99414.97;;;2.79;90.51
20710;BME280;10516;51.518;9.864;2023-02-02T15:27:50;99439.47;;;2.94;90.56
20710;BME280;10516;51.518;9.864;2023-02-02T15:30:18;99446.78;;;2.77;90.02
20710;BME280;10516;51.518;9.864;2023-02-02T15:32:44;99455.03;;;2.89;90.57
20710;BME280;10516;51.518;9.864;2023-02-02T15:35:18;99440.47;;;2.93;90.38
20710;BME280;10516;51.518;9.864;2023-02-02T15:37:50;99449.84;;;2.95;90.30
20710;BME280;10516;51.518;9.864;2023-02-02T15:40:23;99453.97;;;2.83;90.32
20710;BME280;10516;51.518;9.864;2023-02-02T15:42:56;99454.94;;;2.82;90.17
20710;BME280;10516;51.518;9.864;2023-02-02T15:45:53;99458.50;;;2.89;90.19
20710;BME280;10516;51.518;9.864;2023-02-02T15:50:50;99467.38;;;2.88;90.58
20710;BME280;10516;51.518;9.864;2023-02-02T15:53:28;99472.97;;;2.79;90.13
20710;BME280;10516;51.518;9.864;2023-02-02T15:55:56;99466.41;;;2.75;90.42
20710;BME280;10516;51.518;9.864;2023-02-02T15:58:24;99478.84;;;2.81;90.33
20710;BME280;10516;51.518;9.864;2023-02-02T16:01:01;99486.34;;;2.77;90.02
20710;BME280;10516;51.518;9.864;2023-02-02T16:03:53;99495.59;;;2.88;90.36
20710;BME280;10516;51.518;9.864;2023-02-02T16:06:21;99487.75;;;2.80;90.36
20710;BME280;10516;51.518;9.864;2023-02-02T16:08:47;99507.75;;;2.74;89.89
20710;BME280;10516;51.518;9.864;2023-02-02T16:11:15;99486.34;;;2.77;90.45
20710;BME280;10516;51.518;9.864;2023-02-02T16:13:59;99499.22;;;2.87;90.24
20710;BME280;10516;51.518;9.864;2023-02-02T16:16:30;99524.09;;;2.84;89.75